Rossmoyne, Ohio
Current Conditions -  °F | °C
As of 12:53 PM on Wednesday 28 Jan 2015 (Local Time) from KLUK Reporting Station
Clear Clear  
Wind Chill: 23°   Ceiling: Unl
Heat Index: 30°   Visibility: 10mi
Dew Point: 16°   Wind: 7mph
Humidity: 56%   Direction: 190°S
Pressure: 30.38"   Gusts: NA
Location:  39.2094°N, 84.3952°W
Report Text: KLUK 281753Z 19006KT 10SM CLR M01/M09 A3038 RMK AO2 SLP293 T10111089 11011 21117 58017
Loading
Personal Weather Stations






























Interactive Weather Map New forecast layout! Learn more

10-Day Weather Forecast

Advertisements
Track Severe Weather on mobile